Time;durP1;ratioP1;P1;durP2;ratioP2;P2;SDS_P1;SDS_P2;PMS_P1;PMS_P2;Temp;Humidity;BMP_temperature;BMP_pressure;BME280_temperature;BME280_humidity;BME280_pressure;Samples;Min_cycle;Max_cycle;Signal;HPM_P1;HPM_P2
2021/11/24 00:06:05;;;;;;;9.77;4.87;;;1.80;66.50;;;;;;2583835;53;21030;-71
2021/11/24 00:08:32;;;;;;;13.50;6.05;;;1.80;66.60;;;;;;2320063;54;20996;-70
2021/11/24 00:11:00;;;;;;;10.50;5.53;;;1.80;66.70;;;;;;2552947;53;21012;-71
2021/11/24 00:13:35;;;;;;;11.55;5.55;;;1.70;66.70;;;;;;2559397;53;21044;-68
2021/11/24 00:16:07;;;;;;;13.25;5.80;;;1.70;66.70;;;;;;2540826;53;21068;-68
2021/11/24 00:18:37;;;;;;;13.30;6.68;;;1.70;66.60;;;;;;2563375;53;20908;-71
2021/11/24 00:21:07;;;;;;;12.80;6.40;;;1.70;66.60;;;;;;2547400;54;21004;-70
2021/11/24 00:23:34;;;;;;;12.10;5.82;;;1.70;66.70;;;;;;2307511;54;21583;-71
2021/11/24 00:26:04;;;;;;;12.32;5.60;;;1.70;66.70;;;;;;2314030;54;21023;-71
2021/11/24 00:28:31;;;;;;;13.90;6.85;;;1.60;66.60;;;;;;2318622;54;20982;-69
2021/11/24 00:31:29;;;;;;;10.48;5.45;;;1.60;66.60;;;;;;2329303;54;20948;-68
2021/11/24 00:33:59;;;;;;;15.52;6.28;;;1.60;66.50;;;;;;2317849;54;21006;-68
2021/11/24 00:36:36;;;;;;;12.55;5.95;;;1.60;66.60;;;;;;2301219;54;21019;-68
2021/11/24 00:39:11;;;;;;;11.82;5.72;;;1.60;66.50;;;;;;2319718;54;20982;-71
2021/11/24 00:42:05;;;;;;;12.50;5.85;;;1.60;66.60;;;;;;2315578;54;20991;-71
2021/11/24 00:44:34;;;;;;;13.90;6.10;;;1.50;66.40;;;;;;2334545;54;20992;-70
2021/11/24 00:47:45;;;;;;;11.20;5.72;;;1.50;66.50;;;;;;2315329;54;20981;-69
2021/11/24 00:50:17;;;;;;;13.75;6.37;;;1.50;66.50;;;;;;2579129;53;21067;-72
2021/11/24 00:56:21;;;;;;;9.57;5.15;;;1.50;66.50;;;;;;2333404;57;21872;-70
2021/11/24 00:59:15;;;;;;;13.98;6.35;;;1.40;66.50;;;;;;2326835;54;21005;-69
2021/11/24 01:01:49;;;;;;;12.05;6.28;;;1.40;66.50;;;;;;2339976;54;20964;-71
2021/11/24 01:10:48;;;;;;;13.18;4.95;;;1.40;67.20;;;;;;2322204;54;21000;-71
2021/11/24 01:13:42;;;;;;;11.82;5.55;;;1.30;66.30;;;;;;2303839;54;20967;-68
2021/11/24 01:16:13;;;;;;;13.50;6.20;;;1.30;66.30;;;;;;2333157;54;21479;-71
2021/11/24 01:18:44;;;;;;;14.05;6.22;;;1.30;66.50;;;;;;2564147;53;21895;-69
2021/11/24 01:21:16;;;;;;;13.02;5.82;;;1.30;66.60;;;;;;2323678;54;21466;-68
2021/11/24 01:23:45;;;;;;;13.23;6.30;;;1.30;66.60;;;;;;2571983;53;20945;-69
2021/11/24 01:27:46;;;;;;;13.40;6.50;;;1.20;66.60;;;;;;2345832;54;21725;-68
2021/11/24 01:30:19;;;;;;;10.57;5.20;;;1.20;66.60;;;;;;2552724;53;20973;-69
2021/11/24 01:33:06;;;;;;;12.85;5.43;;;1.20;66.50;;;;;;2522748;53;20966;-70
2021/11/24 01:35:36;;;;;;;9.95;5.03;;;1.20;66.60;;;;;;2562667;53;21020;-71
2021/11/24 01:38:04;;;;;;;9.48;4.45;;;1.20;66.60;;;;;;2316553;55;21017;-70
2021/11/24 01:40:34;;;;;;;10.48;5.00;;;1.20;66.60;;;;;;2321380;54;20953;-70
2021/11/24 01:43:09;;;;;;;8.57;4.18;;;1.20;66.60;;;;;;2309454;54;20968;-70
2021/11/24 01:45:53;;;;;;;7.82;4.20;;;1.20;66.80;;;;;;2307253;57;21129;-68
2021/11/24 01:49:07;;;;;;;8.02;4.12;;;1.20;66.80;;;;;;2313277;54;21642;-70
2021/11/24 01:59:11;;;;;;;8.55;4.12;;;1.10;66.60;;;;;;2564465;53;21586;-68
2021/11/24 02:01:41;;;;;;;7.87;4.18;;;1.10;66.80;;;;;;2536887;53;21080;-69
2021/11/24 02:04:31;;;;;;;8.50;4.72;;;1.10;67.00;;;;;;2572653;53;21038;-69
2021/11/24 02:10:49;;;;;;;8.50;3.75;;;1.10;67.30;;;;;;2584341;53;21390;-71
2021/11/24 02:13:37;;;;;;;7.30;3.60;;;1.10;67.30;;;;;;2556325;53;20966;-68
2021/11/24 02:16:11;;;;;;;8.25;3.95;;;1.10;67.50;;;;;;2542878;53;20969;-70
2021/11/24 02:19:04;;;;;;;9.18;4.00;;;1.10;67.40;;;;;;2555010;53;21028;-70
2021/11/24 02:22:17;;;;;;;8.35;4.00;;;1.10;67.30;;;;;;2331572;54;21073;-71
2021/11/24 02:24:55;;;;;;;9.23;4.22;;;1.20;67.20;;;;;;2581811;53;20996;-70
2021/11/24 02:27:24;;;;;;;8.30;4.22;;;1.10;67.30;;;;;;2578613;53;21016;-69
2021/11/24 02:30:30;;;;;;;8.15;4.20;;;1.10;67.30;;;;;;2585772;53;21048;-70
2021/11/24 02:33:25;;;;;;;7.75;4.40;;;1.20;67.20;;;;;;2342865;54;20993;-69
2021/11/24 02:36:11;;;;;;;;;;;1.10;67.10;;;;;;2400562;57;20991;-69
2021/11/24 02:38:44;;;;;;;7.87;3.72;;;1.10;66.70;;;;;;2321701;54;20107;-69
2021/11/24 02:41:12;;;;;;;7.78;3.83;;;1.10;67.20;;;;;;2547229;54;20954;-70
2021/11/24 02:47:19;;;;;;;6.25;3.22;;;1.10;67.30;;;;;;2531137;54;20963;-71
2021/11/24 02:54:27;;;;;;;8.90;4.05;;;1.10;67.20;;;;;;2558407;53;21049;-72
2021/11/24 02:57:09;;;;;;;8.15;4.10;;;1.10;67.20;;;;;;2336879;54;20943;-70
2021/11/24 02:59:39;;;;;;;8.40;3.87;;;1.10;67.10;;;;;;2561950;53;20937;-70
2021/11/24 03:02:17;;;;;;;8.55;4.57;;;1.10;67.10;;;;;;2324365;54;21467;-70
2021/11/24 03:05:08;;;;;;;8.25;4.25;;;1.10;67.20;;;;;;2551226;53;20979;-69
2021/11/24 03:13:39;;;;;;;8.52;4.30;;;1.10;67.40;;;;;;2328498;54;21000;-70
2021/11/24 03:16:19;;;;;;;10.13;4.32;;;1.10;67.60;;;;;;2542546;53;20932;-68
2021/11/24 03:18:53;;;;;;;9.02;4.25;;;1.10;67.90;;;;;;2342428;54;20988;-68
2021/11/24 03:21:22;;;;;;;9.38;4.78;;;1.10;68.00;;;;;;2326366;54;21076;-69
2021/11/24 03:24:06;;;;;;;8.30;4.32;;;1.20;68.20;;;;;;2327119;53;20981;-71
2021/11/24 03:26:34;;;;;;;11.07;5.45;;;1.20;68.10;;;;;;2339027;54;20981;-69
2021/11/24 03:29:16;;;;;;;10.23;4.87;;;1.20;68.00;;;;;;2560303;53;20974;-71
2021/11/24 03:31:46;;;;;;;9.93;5.20;;;1.20;67.90;;;;;;2338598;54;21034;-68
2021/11/24 03:38:05;;;;;;;10.18;5.10;;;1.20;67.90;;;;;;2577031;53;20985;-70
2021/11/24 03:40:35;;;;;;;12.27;6.10;;;1.30;68.10;;;;;;2549289;54;21005;-71
2021/11/24 03:43:40;;;;;;;11.12;5.70;;;1.30;68.50;;;;;;2309884;54;21038;-71
2021/11/24 03:46:21;;;;;;;11.70;5.97;;;1.30;68.80;;;;;;2544038;54;21025;-70
2021/11/24 03:48:48;;;;;;;10.13;5.22;;;1.40;69.10;;;;;;2586294;53;20973;-69
2021/11/24 03:51:17;;;;;;;12.48;5.87;;;1.40;69.10;;;;;;2583620;53;20989;-69
2021/11/24 03:53:52;;;;;;;11.32;5.40;;;1.40;69.00;;;;;;2301417;55;20993;-69
2021/11/24 03:56:49;;;;;;;10.40;5.22;;;1.40;68.80;;;;;;2586721;53;20965;-70
2021/11/24 03:59:17;;;;;;;11.40;5.68;;;1.50;68.50;;;;;;2336339;54;21052;-70
2021/11/24 04:01:47;;;;;;;10.10;5.43;;;1.50;68.40;;;;;;2548381;53;21006;-71
2021/11/24 04:04:20;;;;;;;10.85;6.10;;;1.50;68.30;;;;;;2339332;54;20986;-70
2021/11/24 04:06:50;;;;;;;13.00;6.57;;;1.50;68.30;;;;;;2333031;54;20988;-69
2021/11/24 04:09:17;;;;;;;12.75;6.85;;;1.50;68.30;;;;;;2324888;54;21018;-70
2021/11/24 04:11:44;;;;;;;14.87;6.70;;;1.50;68.30;;;;;;2308738;54;20968;-69
2021/11/24 04:14:13;;;;;;;11.90;6.43;;;1.60;68.40;;;;;;2563567;53;20995;-69
2021/11/24 04:17:13;;;;;;;14.13;6.30;;;1.60;68.40;;;;;;2326418;54;21008;-68
2021/11/24 04:19:41;;;;;;;13.07;6.32;;;1.60;68.20;;;;;;2326118;54;20981;-69
2021/11/24 04:41:28;;;;;;;8.13;3.67;;;1.60;68.00;;;;;;2530161;54;21064;-69
2021/11/24 04:44:00;;;;;;;10.07;4.75;;;1.50;67.60;;;;;;2558374;53;21050;-69
2021/11/24 05:01:52;;;;;;;9.45;3.87;;;1.40;67.80;;;;;;2545807;53;21089;-71
2021/11/24 05:04:28;;;;;;;10.95;5.00;;;1.50;68.60;;;;;;2320052;55;20987;-69
2021/11/24 05:07:18;;;;;;;10.63;5.22;;;1.50;68.80;;;;;;2436425;56;22089;-71
2021/11/24 05:10:04;;;;;;;11.55;5.25;;;1.50;68.90;;;;;;2225712;57;21019;-70
2021/11/24 05:12:31;;;;;;;13.13;5.72;;;1.50;68.90;;;;;;2414123;57;21015;-71
2021/11/24 05:15:42;;;;;;;12.77;5.75;;;1.60;69.00;;;;;;2207637;57;21035;-71
2021/11/24 05:18:37;;;;;;;10.60;5.22;;;1.60;69.00;;;;;;2421499;56;21001;-69
2021/11/24 05:21:31;;;;;;;12.18;6.75;;;1.60;69.10;;;;;;2199418;57;21513;-69
2021/11/24 05:24:02;;;;;;;13.40;7.15;;;1.70;69.10;;;;;;2191765;58;21028;-69
2021/11/24 05:26:30;;;;;;;13.98;7.43;;;1.70;69.10;;;;;;2410678;57;21049;-71
2021/11/24 05:29:01;;;;;;;14.87;7.15;;;1.70;69.10;;;;;;2408135;56;20990;-69
2021/11/24 05:32:13;;;;;;;12.80;6.87;;;1.70;69.20;;;;;;2196126;57;21044;-69
2021/11/24 05:34:41;;;;;;;16.23;11.35;;;1.80;69.10;;;;;;2395974;57;21097;-70
2021/11/24 05:41:11;;;;;;;13.70;7.45;;;1.80;69.10;;;;;;2413067;57;21062;-71
2021/11/24 05:44:25;;;;;;;12.63;6.43;;;1.90;69.20;;;;;;2225124;56;21039;-71
2021/11/24 05:47:49;;;;;;;13.60;6.50;;;1.90;69.20;;;;;;2317171;54;21043;-69
2021/11/24 05:50:26;;;;;;;10.73;5.78;;;1.90;69.20;;;;;;2546493;53;20997;-70
2021/11/24 05:52:55;;;;;;;11.60;6.72;;;2.00;69.30;;;;;;2550472;53;21689;-71
2021/11/24 05:55:22;;;;;;;14.60;7.30;;;2.00;69.30;;;;;;2306132;55;21037;-69
2021/11/24 05:57:49;;;;;;;16.08;7.32;;;2.00;69.30;;;;;;2314468;54;20959;-70
2021/11/24 06:00:16;;;;;;;21.23;10.20;;;2.00;69.30;;;;;;2545006;54;21544;-71
2021/11/24 06:02:43;;;;;;;21.50;10.85;;;2.00;69.20;;;;;;2310848;54;20951;-70
2021/11/24 06:05:10;;;;;;;17.35;9.20;;;2.10;69.10;;;;;;2539689;54;20980;-71
2021/11/24 06:07:55;;;;;;;16.08;8.90;;;2.10;69.00;;;;;;2313536;54;21507;-70
2021/11/24 06:10:24;;;;;;;14.95;8.15;;;2.10;68.80;;;;;;2538083;53;21023;-70
2021/11/24 06:12:53;;;;;;;15.73;8.45;;;2.10;68.90;;;;;;2304868;54;21046;-69
2021/11/24 06:15:45;;;;;;;14.68;8.43;;;2.10;68.90;;;;;;2308647;57;21069;-70
2021/11/24 06:18:12;;;;;;;15.93;8.43;;;2.10;68.70;;;;;;2316147;54;20955;-70
2021/11/24 06:20:40;;;;;;;16.90;7.62;;;2.10;69.50;;;;;;2312062;54;20980;-70
2021/11/24 06:23:08;;;;;;;13.95;6.82;;;2.10;68.80;;;;;;2304534;54;20974;-69
2021/11/24 06:25:36;;;;;;;12.77;6.43;;;2.10;68.70;;;;;;2544847;54;20967;-71
2021/11/24 06:28:04;;;;;;;13.77;7.10;;;2.10;68.70;;;;;;2314719;54;20979;-70
2021/11/24 06:30:31;;;;;;;13.10;6.97;;;2.10;68.70;;;;;;2544648;53;20965;-71
2021/11/24 06:32:57;;;;;;;13.38;7.00;;;2.10;68.70;;;;;;2317841;54;20963;-69
2021/11/24 06:35:24;;;;;;;16.23;7.18;;;2.10;68.60;;;;;;2546923;53;21095;-70
2021/11/24 06:38:02;;;;;;;18.52;8.38;;;2.10;69.10;;;;;;2308332;54;20990;-69
2021/11/24 06:40:28;;;;;;;16.30;8.15;;;2.10;68.30;;;;;;2290366;55;21069;-71
2021/11/24 06:42:55;;;;;;;19.60;9.30;;;2.10;68.30;;;;;;2307869;54;21029;-70
2021/11/24 06:45:23;;;;;;;18.48;9.32;;;2.10;68.30;;;;;;2549847;53;21026;-68
2021/11/24 06:47:50;;;;;;;23.02;11.70;;;2.10;68.30;;;;;;2327825;54;21132;-69
2021/11/24 06:50:18;;;;;;;18.00;10.20;;;2.10;68.40;;;;;;2542163;53;20988;-70
2021/11/24 06:52:48;;;;;;;18.20;9.73;;;2.00;68.30;;;;;;2320308;54;21881;-70
2021/11/24 06:55:14;;;;;;;13.95;7.95;;;2.00;68.30;;;;;;2539099;54;21015;-69
2021/11/24 06:57:42;;;;;;;15.68;8.30;;;2.00;68.40;;;;;;2531627;54;21880;-69
2021/11/24 07:00:08;;;;;;;16.65;9.10;;;2.10;68.50;;;;;;2313513;54;20972;-70
2021/11/24 07:02:36;;;;;;;17.73;9.55;;;2.00;68.40;;;;;;2310931;54;21057;-70
2021/11/24 07:05:04;;;;;;;16.08;8.65;;;2.00;68.40;;;;;;2547928;54;20993;-70
2021/11/24 07:07:32;;;;;;;15.93;8.88;;;2.00;68.40;;;;;;2534079;53;20940;-70
2021/11/24 07:09:59;;;;;;;14.73;7.60;;;2.10;68.60;;;;;;2576959;53;21059;-70
2021/11/24 07:12:37;;;;;;;14.75;8.05;;;2.10;68.60;;;;;;2299130;54;21455;-70
2021/11/24 07:15:04;;;;;;;16.08;8.70;;;2.10;68.60;;;;;;2563380;53;20959;-70
2021/11/24 07:17:33;;;;;;;13.77;7.32;;;2.10;68.70;;;;;;2311493;54;20956;-69
2021/11/24 07:20:01;;;;;;;16.08;8.15;;;2.10;68.70;;;;;;2547985;54;21004;-69
2021/11/24 07:22:29;;;;;;;17.62;8.57;;;2.10;68.70;;;;;;2520194;54;21114;-69
2021/11/24 07:24:57;;;;;;;18.02;9.73;;;2.10;68.70;;;;;;2312491;54;20995;-70
2021/11/24 07:27:23;;;;;;;16.05;8.93;;;2.10;68.70;;;;;;2323547;54;21033;-70
2021/11/24 07:29:49;;;;;;;16.87;9.52;;;2.10;68.70;;;;;;2546117;54;21006;-69
2021/11/24 07:32:17;;;;;;;18.90;10.20;;;2.10;68.80;;;;;;2546775;53;21070;-70
2021/11/24 07:34:43;;;;;;;16.50;8.77;;;2.10;68.80;;;;;;2552607;53;21068;-69
2021/11/24 07:37:09;;;;;;;13.80;7.65;;;2.10;68.60;;;;;;2537342;53;20946;-71
2021/11/24 07:39:35;;;;;;;16.33;7.72;;;2.10;68.50;;;;;;2546128;54;21785;-70
2021/11/24 07:42:03;;;;;;;16.10;8.23;;;2.10;68.40;;;;;;2546615;53;20917;-68
2021/11/24 07:44:29;;;;;;;14.38;8.35;;;2.20;68.40;;;;;;2533668;54;21093;-70
2021/11/24 07:46:56;;;;;;;14.50;8.02;;;2.10;68.10;;;;;;2301766;54;20983;-69
2021/11/24 07:49:22;;;;;;;17.48;8.35;;;2.10;68.00;;;;;;2307337;54;21095;-69
2021/11/24 07:51:49;;;;;;;12.57;7.82;;;2.00;67.90;;;;;;2307419;54;22025;-70
2021/11/24 07:54:19;;;;;;;13.35;8.05;;;2.00;67.90;;;;;;2307913;54;20982;-69
2021/11/24 07:56:46;;;;;;;14.13;7.93;;;2.00;67.90;;;;;;2324578;54;20966;-68
2021/11/24 07:59:12;;;;;;;14.30;7.47;;;2.00;67.90;;;;;;2546391;54;21043;-69
2021/11/24 08:01:39;;;;;;;15.60;7.95;;;2.00;67.90;;;;;;2536932;53;21069;-69
2021/11/24 08:04:06;;;;;;;14.75;7.68;;;2.00;67.90;;;;;;2544156;54;21032;-70
2021/11/24 08:06:33;;;;;;;20.23;10.18;;;1.90;67.80;;;;;;2302599;54;20886;-69
2021/11/24 08:08:59;;;;;;;19.20;9.43;;;1.90;67.90;;;;;;2519923;54;20958;-70
2021/11/24 08:11:26;;;;;;;17.70;9.55;;;1.90;68.00;;;;;;2312093;54;20967;-68
2021/11/24 08:13:53;;;;;;;21.33;10.77;;;1.90;68.20;;;;;;2547549;54;21049;-71
2021/11/24 08:16:19;;;;;;;19.48;10.73;;;1.90;68.20;;;;;;2308715;54;20971;-69
2021/11/24 08:18:46;;;;;;;18.55;9.80;;;1.90;68.30;;;;;;2314776;54;20967;-69
2021/11/24 08:21:12;;;;;;;14.25;8.43;;;2.00;68.30;;;;;;2294381;55;21316;-69
2021/11/24 08:23:39;;;;;;;15.50;8.93;;;2.00;69.00;;;;;;2547086;53;21894;-69
2021/11/24 08:26:05;;;;;;;18.75;9.65;;;2.00;68.40;;;;;;2307257;54;20976;-70
2021/11/24 08:28:32;;;;;;;17.65;10.05;;;2.00;68.40;;;;;;2542823;54;21011;-70
2021/11/24 08:30:58;;;;;;;19.75;10.68;;;2.00;68.50;;;;;;2302355;54;20974;-69
2021/11/24 08:33:25;;;;;;;16.75;9.52;;;2.00;68.60;;;;;;2559617;53;20925;-71
2021/11/24 08:35:51;;;;;;;18.87;11.63;;;2.00;68.70;;;;;;2559710;53;21118;-69
2021/11/24 08:38:18;;;;;;;22.37;11.40;;;2.00;68.70;;;;;;2545027;53;21108;-69
2021/11/24 08:40:45;;;;;;;21.27;11.20;;;2.10;68.90;;;;;;2310916;54;21043;-69
2021/11/24 08:43:11;;;;;;;122.68;35.97;;;2.10;69.00;;;;;;2547962;53;20977;-70
2021/11/24 08:45:38;;;;;;;136.52;44.35;;;2.10;68.90;;;;;;2330399;54;20971;-71
2021/11/24 08:48:05;;;;;;;114.18;37.78;;;2.20;69.10;;;;;;2542419;53;21690;-70
2021/11/24 08:50:33;;;;;;;82.57;32.58;;;2.20;69.20;;;;;;2304976;54;20943;-70
2021/11/24 08:52:59;;;;;;;77.40;31.33;;;2.20;69.40;;;;;;2545101;54;21606;-69
2021/11/24 08:55:27;;;;;;;61.15;25.85;;;2.30;69.60;;;;;;2317975;54;20986;-70
2021/11/24 08:57:56;;;;;;;38.47;19.80;;;2.30;69.70;;;;;;2549415;54;21022;-70
2021/11/24 09:00:23;;;;;;;33.25;16.95;;;2.40;70.00;;;;;;2310264;54;21869;-71
2021/11/24 09:02:51;;;;;;;28.52;14.25;;;2.50;70.20;;;;;;2323196;54;20954;-71
2021/11/24 09:05:20;;;;;;;23.87;12.43;;;2.50;70.20;;;;;;2300635;55;20975;-69
2021/11/24 09:07:48;;;;;;;23.70;12.45;;;2.60;70.50;;;;;;2534890;54;20998;-71
2021/11/24 09:10:41;;;;;;;22.10;11.75;;;2.70;70.80;;;;;;2558597;53;21453;-70
2021/11/24 09:13:08;;;;;;;22.13;11.65;;;2.80;71.00;;;;;;2302052;54;21040;-71
2021/11/24 09:15:34;;;;;;;20.40;11.60;;;2.80;71.10;;;;;;2539712;53;21014;-71
2021/11/24 09:18:10;;;;;;;21.58;10.85;;;2.90;71.30;;;;;;2538512;53;20974;-69
2021/11/24 09:20:46;;;;;;;23.50;12.73;;;3.00;71.40;;;;;;2310273;54;21048;-70
2021/11/24 09:23:14;;;;;;;23.10;12.80;;;3.10;71.50;;;;;;2540761;53;21570;-69
2021/11/24 09:25:52;;;;;;;18.62;10.85;;;3.20;71.60;;;;;;2538974;53;20997;-69
2021/11/24 09:28:21;;;;;;;17.70;10.25;;;3.30;71.70;;;;;;2306526;54;20984;-69
2021/11/24 09:30:49;;;;;;;18.15;9.35;;;3.40;71.90;;;;;;2555413;53;21012;-69
2021/11/24 09:33:23;;;;;;;17.67;9.45;;;3.50;72.10;;;;;;2314787;54;20978;-69
2021/11/24 09:35:50;;;;;;;17.45;8.85;;;3.60;72.10;;;;;;2317927;54;20959;-69
2021/11/24 09:38:16;;;;;;;15.75;8.85;;;3.70;72.40;;;;;;2543873;53;21031;-69
2021/11/24 09:40:49;;;;;;;17.25;9.60;;;3.80;72.60;;;;;;2314393;57;21206;-69
2021/11/24 09:43:16;;;;;;;17.58;9.55;;;3.90;72.90;;;;;;2555143;53;21002;-69
2021/11/24 09:45:45;;;;;;;16.25;9.60;;;4.00;73.50;;;;;;2554949;53;20947;-69
2021/11/24 09:48:16;;;;;;;15.77;9.27;;;4.20;75.60;;;;;;2320730;54;21915;-68
2021/11/24 09:50:42;;;;;;;15.93;8.77;;;4.50;76.70;;;;;;2301908;54;20957;-70
2021/11/24 09:53:09;;;;;;;17.42;9.43;;;4.90;78.40;;;;;;2320702;54;20934;-68
2021/11/24 09:55:53;;;;;;;13.73;8.40;;;5.30;79.50;;;;;;2316155;54;20951;-70
2021/11/24 09:58:20;;;;;;;14.27;9.05;;;5.80;79.60;;;;;;2294636;55;20969;-70
2021/11/24 10:00:47;;;;;;;14.07;9.30;;;6.10;79.80;;;;;;2303602;54;21543;-70
2021/11/24 10:03:15;;;;;;;15.30;9.73;;;6.50;79.70;;;;;;2323355;54;21725;-70
2021/11/24 10:05:42;;;;;;;13.65;8.93;;;6.90;79.30;;;;;;2559883;53;20997;-70
2021/11/24 10:08:08;;;;;;;14.15;8.65;;;7.20;78.30;;;;;;2312678;54;20962;-69
2021/11/24 10:10:35;;;;;;;14.40;9.32;;;7.50;77.70;;;;;;2317210;54;20962;-69
2021/11/24 10:13:14;;;;;;;11.10;7.87;;;7.80;77.30;;;;;;2560060;53;21394;-70
2021/11/24 10:15:47;;;;;;;10.90;7.85;;;8.10;76.50;;;;;;2532044;53;21074;-70
2021/11/24 10:18:28;;;;;;;12.32;8.65;;;8.40;74.60;;;;;;2301565;54;21028;-69
2021/11/24 10:21:15;;;;;;;11.45;7.82;;;8.50;72.40;;;;;;2338595;54;21603;-70
2021/11/24 10:23:47;;;;;;;12.80;7.97;;;8.50;70.50;;;;;;2317598;54;21069;-70
2021/11/24 10:26:33;;;;;;;15.43;8.52;;;8.50;70.40;;;;;;2544272;53;21006;-70
2021/11/24 10:29:10;;;;;;;11.07;7.53;;;8.50;69.30;;;;;;2320949;54;20968;-70
2021/11/24 10:31:51;;;;;;;11.88;7.80;;;8.40;69.30;;;;;;2315055;54;21531;-71
2021/11/24 10:34:27;;;;;;;12.35;8.13;;;8.30;69.10;;;;;;2314976;54;20963;-70
2021/11/24 10:37:15;;;;;;;11.85;7.35;;;8.30;69.20;;;;;;2313413;54;21035;-69
2021/11/24 10:39:53;;;;;;;10.02;6.80;;;8.20;68.30;;;;;;2319422;54;21012;-70
2021/11/24 10:42:34;;;;;;;11.10;7.12;;;8.10;68.30;;;;;;2317854;54;21039;-70
2021/11/24 10:45:11;;;;;;;12.32;7.65;;;8.10;68.10;;;;;;2301649;54;21705;-71
2021/11/24 10:51:50;;;;;;;13.23;8.57;;;7.80;67.30;;;;;;2545040;53;20930;-69
2021/11/24 10:54:18;;;;;;;13.07;7.70;;;7.70;66.90;;;;;;2306223;54;21094;-69
2021/11/24 10:57:02;;;;;;;12.15;8.05;;;7.60;67.80;;;;;;2544744;54;21041;-70
2021/11/24 10:59:35;;;;;;;13.40;7.57;;;7.50;67.50;;;;;;2300770;54;21011;-70
2021/11/24 11:02:53;;;;;;;13.95;8.65;;;7.40;68.30;;;;;;2309829;54;21215;-70
2021/11/24 11:05:35;;;;;;;13.85;8.48;;;7.30;68.30;;;;;;2540439;53;20970;-70
2021/11/24 11:08:37;;;;;;;15.88;9.52;;;7.30;68.90;;;;;;2546054;53;20979;-70
2021/11/24 11:11:32;;;;;;;14.18;8.68;;;7.30;68.90;;;;;;2570972;53;21040;-70
2021/11/24 11:14:25;;;;;;;11.80;8.00;;;7.30;69.50;;;;;;2317288;54;20957;-70
2021/11/24 11:16:53;;;;;;;15.13;8.65;;;7.30;69.40;;;;;;2548868;53;20970;-71
2021/11/24 11:19:39;;;;;;;13.62;8.45;;;7.30;70.00;;;;;;2326606;54;21060;-71
2021/11/24 11:22:10;;;;;;;11.65;7.53;;;7.40;69.90;;;;;;2556422;53;20942;-70
2021/11/24 11:24:37;;;;;;;14.20;8.57;;;7.30;70.10;;;;;;2310040;54;20946;-69
2021/11/24 11:27:05;;;;;;;14.80;9.32;;;7.40;70.10;;;;;;2316971;54;21076;-71
2021/11/24 11:29:31;;;;;;;15.32;9.18;;;7.40;70.00;;;;;;2534563;54;21162;-71
2021/11/24 11:31:59;;;;;;;14.95;9.75;;;7.40;69.80;;;;;;2317134;54;20951;-70
2021/11/24 11:34:30;;;;;;;14.07;8.80;;;7.30;69.80;;;;;;2582069;53;20992;-70
2021/11/24 11:36:57;;;;;;;15.23;8.93;;;7.40;69.90;;;;;;2301956;55;21102;-70
2021/11/24 11:39:25;;;;;;;14.75;9.02;;;7.40;70.10;;;;;;2315274;54;20947;-71
2021/11/24 11:42:14;;;;;;;15.65;9.23;;;7.40;70.80;;;;;;2314563;54;21023;-71
2021/11/24 11:45:12;;;;;;;13.80;8.60;;;7.40;69.70;;;;;;2476295;53;4867845;-70
2021/11/24 11:47:52;;;;;;;11.82;7.60;;;7.40;70.40;;;;;;2546518;54;21884;-69
2021/11/24 11:50:55;;;;;;;12.50;8.07;;;7.40;70.40;;;;;;2310692;54;20950;-70
2021/11/24 11:53:57;;;;;;;14.25;7.60;;;7.50;70.10;;;;;;2313973;54;20969;-70
2021/11/24 11:56:29;;;;;;;12.20;7.30;;;7.50;70.10;;;;;;2319231;54;20985;-70
2021/11/24 11:59:18;;;;;;;12.55;8.23;;;7.60;70.80;;;;;;2311717;54;22267;-69
2021/11/24 12:01:55;;;;;;;13.52;8.90;;;7.60;70.50;;;;;;2558716;53;20970;-69
2021/11/24 12:04:27;;;;;;;12.13;7.93;;;7.60;70.70;;;;;;2308675;54;20979;-69
2021/11/24 12:07:16;;;;;;;12.82;7.35;;;7.70;70.90;;;;;;2545589;54;20979;-68
2021/11/24 12:10:17;;;;;;;12.63;7.32;;;7.70;70.30;;;;;;2320542;54;21062;-70
2021/11/24 12:12:44;;;;;;;11.98;7.70;;;7.80;70.50;;;;;;2565214;53;21153;-71
2021/11/24 12:15:27;;;;;;;12.85;8.00;;;7.60;70.70;;;;;;2558579;53;21078;-70
2021/11/24 12:18:17;;;;;;;15.88;8.95;;;7.90;70.60;;;;;;2532308;53;20952;-71
2021/11/24 12:20:46;;;;;;;13.48;7.62;;;7.90;70.80;;;;;;2288533;54;21053;-71
2021/11/24 12:23:29;;;;;;;11.98;7.37;;;7.90;70.50;;;;;;2291905;54;20995;-71
2021/11/24 12:26:45;;;;;;;11.30;7.03;;;8.00;70.50;;;;;;2533737;54;20988;-69
2021/11/24 12:29:48;;;;;;;11.10;7.18;;;8.00;69.90;;;;;;2323557;54;21055;-70
2021/11/24 12:32:17;;;;;;;9.07;5.95;;;8.00;69.60;;;;;;2574789;53;21102;-71
2021/11/24 12:34:51;;;;;;;9.88;6.22;;;8.10;70.30;;;;;;2568448;53;20946;-70
2021/11/24 12:37:21;;;;;;;10.85;6.78;;;8.10;70.30;;;;;;2320401;54;20983;-71
2021/11/24 12:39:47;;;;;;;12.10;6.82;;;8.10;70.10;;;;;;2312074;54;21048;-70
2021/11/24 12:42:14;;;;;;;9.82;6.07;;;8.10;70.10;;;;;;2309737;54;20963;-70
2021/11/24 12:44:52;;;;;;;9.43;6.18;;;8.10;70.20;;;;;;2318206;54;21047;-70
2021/11/24 12:47:22;;;;;;;12.13;7.28;;;8.20;69.90;;;;;;2302022;55;20991;-70
2021/11/24 12:49:48;;;;;;;12.07;7.28;;;8.20;70.00;;;;;;2546008;53;20968;-71
2021/11/24 12:53:00;;;;;;;10.32;6.60;;;8.20;70.00;;;;;;2314070;54;21024;-71
2021/11/24 12:55:34;;;;;;;11.40;7.35;;;8.20;69.60;;;;;;2314321;54;20982;-70
2021/11/24 12:58:27;;;;;;;11.48;7.00;;;8.20;69.90;;;;;;2315875;54;21006;-70
2021/11/24 13:00:54;;;;;;;10.05;6.55;;;8.30;69.80;;;;;;2315960;54;21023;-70
2021/11/24 13:03:30;;;;;;;10.88;7.12;;;8.30;70.30;;;;;;2315713;54;20986;-70
2021/11/24 13:05:59;;;;;;;13.82;8.52;;;8.30;70.10;;;;;;2554399;53;20986;-70
2021/11/24 13:08:26;;;;;;;12.43;8.68;;;8.40;70.30;;;;;;2336324;54;20967;-71
2021/11/24 13:11:02;;;;;;;14.07;8.48;;;8.40;70.30;;;;;;2312489;54;20929;-71
2021/11/24 13:13:29;;;;;;;12.30;7.57;;;8.40;69.60;;;;;;2553844;53;21838;-71
2021/11/24 13:15:55;;;;;;;12.88;8.05;;;8.50;70.10;;;;;;2316905;54;20979;-70
2021/11/24 13:18:25;;;;;;;12.65;8.10;;;8.50;69.90;;;;;;2329068;54;21005;-70
2021/11/24 13:20:53;;;;;;;10.55;7.07;;;8.50;69.80;;;;;;2540451;54;20896;-71
2021/11/24 13:23:29;;;;;;;11.07;6.82;;;8.50;69.80;;;;;;2319936;54;20995;-70
2021/11/24 13:25:57;;;;;;;9.82;6.37;;;8.50;69.80;;;;;;2546021;54;21019;-70
2021/11/24 13:28:23;;;;;;;10.85;7.03;;;8.60;69.90;;;;;;2314949;54;21010;-69
2021/11/24 13:30:54;;;;;;;11.50;7.10;;;8.60;69.90;;;;;;2303175;55;20981;-70
2021/11/24 13:33:22;;;;;;;13.62;8.10;;;8.60;69.60;;;;;;2524154;54;20998;-70
2021/11/24 13:35:58;;;;;;;13.98;7.80;;;8.60;69.50;;;;;;2305334;54;21023;-69
2021/11/24 13:38:58;;;;;;;13.23;8.48;;;8.60;69.20;;;;;;2311204;54;20968;-70
2021/11/24 13:41:30;;;;;;;12.88;7.55;;;8.60;68.60;;;;;;2311290;54;22063;-71
2021/11/24 13:44:06;;;;;;;13.13;8.32;;;8.60;69.10;;;;;;2320759;53;21019;-70
2021/11/24 13:46:44;;;;;;;10.48;6.68;;;8.70;69.00;;;;;;2296359;54;20992;-70
2021/11/24 13:49:30;;;;;;;12.85;7.22;;;8.70;69.30;;;;;;2311387;54;20970;-70
2021/11/24 13:52:09;;;;;;;11.38;7.45;;;8.70;68.80;;;;;;2515802;54;21068;-70
2021/11/24 13:54:54;;;;;;;12.13;8.00;;;8.70;68.80;;;;;;2310169;54;20978;-70
2021/11/24 13:57:21;;;;;;;12.15;8.32;;;8.70;68.60;;;;;;2314328;54;20996;-71
2021/11/24 13:59:48;;;;;;;11.43;7.85;;;8.40;68.80;;;;;;2300510;54;20931;-70
2021/11/24 14:02:25;;;;;;;12.55;7.47;;;8.70;69.10;;;;;;2316304;54;20977;-70
2021/11/24 14:05:14;;;;;;;12.25;7.87;;;8.70;68.70;;;;;;2317759;54;21470;-70
2021/11/24 14:07:41;;;;;;;12.30;7.68;;;8.70;68.90;;;;;;2552908;53;20986;-70
2021/11/24 14:10:17;;;;;;;13.32;8.23;;;8.70;68.90;;;;;;2318626;54;20983;-70
2021/11/24 14:12:45;;;;;;;12.20;7.72;;;8.70;68.80;;;;;;2531164;54;20989;-69
2021/11/24 14:15:29;;;;;;;12.20;7.72;;;8.70;69.00;;;;;;2312231;54;20979;-70
2021/11/24 14:18:04;;;;;;;12.98;8.20;;;8.70;68.60;;;;;;2546478;53;20986;-69
2021/11/24 14:20:42;;;;;;;11.82;8.35;;;8.70;68.80;;;;;;2309942;54;21011;-71
2021/11/24 14:23:13;;;;;;;10.98;6.97;;;8.70;69.00;;;;;;2540856;53;20910;-70
2021/11/24 14:25:50;;;;;;;10.48;6.82;;;8.70;68.90;;;;;;2331664;54;20978;-70
2021/11/24 14:28:18;;;;;;;10.73;7.15;;;8.70;68.80;;;;;;2546457;54;21007;-70
2021/11/24 14:30:47;;;;;;;10.43;6.87;;;8.70;68.90;;;;;;2513056;54;21070;-70
2021/11/24 14:33:16;;;;;;;10.07;6.75;;;8.70;68.90;;;;;;2313845;54;21878;-70
2021/11/24 14:35:43;;;;;;;10.55;6.80;;;8.70;68.90;;;;;;2314201;54;21019;-70
2021/11/24 14:38:10;;;;;;;12.00;6.82;;;8.70;68.90;;;;;;2310613;54;20975;-69
2021/11/24 14:40:36;;;;;;;13.45;7.78;;;8.70;68.90;;;;;;2308155;54;21018;-70
2021/11/24 14:43:03;;;;;;;12.05;7.68;;;8.70;68.90;;;;;;2312542;54;21728;-70
2021/11/24 14:45:30;;;;;;;11.52;6.53;;;8.70;68.90;;;;;;2530895;54;20972;-70
2021/11/24 14:47:57;;;;;;;9.80;6.25;;;8.70;68.80;;;;;;2308111;54;21341;-70
2021/11/24 14:50:24;;;;;;;12.75;7.10;;;8.60;68.70;;;;;;2322589;54;20987;-70
2021/11/24 14:52:51;;;;;;;10.13;6.45;;;8.60;68.60;;;;;;2302844;54;21437;-70
2021/11/24 14:55:18;;;;;;;11.10;6.80;;;8.60;68.60;;;;;;2326612;54;20958;-70